createdAt,value
2017-07-03T00:00:55.893Z,0
2017-07-03T00:01:55.591Z,0
2017-07-03T00:02:55.627Z,0
2017-07-03T00:03:56.245Z,0
2017-07-03T00:04:56.321Z,0
2017-07-03T00:05:56.017Z,0
2017-07-03T00:06:56.375Z,0
2017-07-03T00:07:56.407Z,0
2017-07-03T00:08:56.728Z,0
2017-07-03T00:09:56.137Z,0
2017-07-03T00:10:56.482Z,0
2017-07-03T00:11:56.191Z,0
2017-07-03T00:12:55.924Z,0
2017-07-03T00:13:56.817Z,0
2017-07-03T00:14:56.281Z,0
2017-07-03T00:15:56.628Z,0
2017-07-03T00:16:56.648Z,0
2017-07-03T00:17:56.375Z,0
2017-07-03T00:18:56.641Z,0
2017-07-03T00:19:56.728Z,0
2017-07-03T00:20:56.462Z,0
2017-07-03T00:21:56.792Z,0
2017-07-03T00:22:56.815Z,0
2017-07-03T00:23:56.472Z,0
2017-07-03T00:24:56.565Z,0
2017-07-03T00:25:56.905Z,0
2017-07-03T00:26:56.622Z,0
2017-07-03T00:27:56.656Z,0
2017-07-03T00:28:56.972Z,0
2017-07-03T00:29:56.697Z,0
2017-07-03T00:30:56.098Z,0
2017-07-03T00:31:56.754Z,0
2017-07-03T00:32:56.151Z,0
2017-07-03T00:33:57.048Z,0
2017-07-03T00:34:57.156Z,0
2017-07-03T00:35:56.861Z,0
2017-07-03T00:36:56.586Z,0
2017-07-03T00:37:57.235Z,0
2017-07-03T00:38:57.243Z,0
2017-07-03T00:39:57.292Z,0
2017-07-03T00:40:56.685Z,0
2017-07-03T00:41:57.034Z,0
2017-07-03T00:42:57.059Z,0
2017-07-03T00:43:57.327Z,0
2017-07-03T00:44:57.104Z,0
2017-07-03T00:45:56.827Z,0
2017-07-03T00:46:57.158Z,0
2017-07-03T00:47:56.875Z,0
2017-07-03T00:48:57.571Z,0
2017-07-03T00:49:57.261Z,0
2017-07-03T00:50:57.592Z,0
2017-07-03T00:51:57.302Z,0
2017-07-03T00:52:56.729Z,0
2017-07-03T00:53:57.034Z,0
2017-07-03T00:54:57.370Z,0
2017-07-03T00:55:57.413Z,0
2017-07-03T00:56:57.450Z,0
2017-07-03T00:57:57.171Z,0
2017-07-03T00:58:56.560Z,0
2017-07-03T00:59:58.100Z,0
2017-07-03T01:00:57.240Z,0
2017-07-03T01:01:57.582Z,0
2017-07-03T01:02:57.614Z,0
2017-07-03T01:03:57.959Z,0
2017-07-03T01:04:57.910Z,0
2017-07-03T01:05:58.014Z,0
2017-07-03T01:06:58.034Z,0
2017-07-03T01:07:57.752Z,0
2017-07-03T01:08:58.085Z,0
2017-07-03T01:09:58.109Z,0
2017-07-03T01:10:58.145Z,0
2017-07-03T01:11:57.857Z,0
2017-07-03T01:12:57.894Z,0
2017-07-03T01:13:58.231Z,0
2017-07-03T01:14:57.886Z,0
2017-07-03T01:15:58.285Z,0
2017-07-03T01:16:57.989Z,0
2017-07-03T01:17:58.331Z,0
2017-07-03T01:18:58.415Z,0
2017-07-03T01:19:58.383Z,0
2017-07-03T01:20:58.096Z,0
2017-07-03T01:21:58.142Z,0
2017-07-03T01:22:58.163Z,0
2017-07-03T01:23:58.491Z,0
2017-07-03T01:24:58.476Z,0
2017-07-03T01:25:58.224Z,0
2017-07-03T01:26:58.618Z,0
2017-07-03T01:27:57.999Z,0
2017-07-03T01:28:58.002Z,0
2017-07-03T01:29:58.609Z,0
2017-07-03T01:30:58.065Z,0
2017-07-03T01:31:57.774Z,0
2017-07-03T01:32:58.746Z,0
2017-07-03T01:33:58.766Z,0
2017-07-03T01:34:59.099Z,0
2017-07-03T01:35:58.205Z,0
2017-07-03T01:36:58.859Z,0
2017-07-03T01:37:58.896Z,0
2017-07-03T01:38:58.911Z,0
2017-07-03T01:39:59.192Z,0
2017-07-03T01:40:58.656Z,0
2017-07-03T01:41:59.002Z,0
2017-07-03T01:42:59.027Z,0
2017-07-03T01:43:58.423Z,0
2017-07-03T01:44:59.387Z,0
2017-07-03T01:45:58.800Z,0
2017-07-03T01:46:58.829Z,0
2017-07-03T01:47:59.150Z,0
2017-07-03T01:48:59.195Z,0
2017-07-03T01:49:59.520Z,0
2017-07-03T01:50:58.929Z,0
2017-07-03T01:51:58.945Z,0
2017-07-03T01:52:58.974Z,0
2017-07-03T01:53:58.704Z,0
2017-07-03T01:54:59.284Z,0
2017-07-03T01:55:59.057Z,0
2017-07-03T01:56:58.797Z,0
2017-07-03T01:57:59.110Z,0
2017-07-03T01:58:59.466Z,0
2017-07-03T01:59:59.487Z,0
2017-07-03T02:00:59.204Z,0
2017-07-03T02:01:59.537Z,0
2017-07-03T02:02:59.270Z,0
2017-07-03T02:03:59.610Z,0
2017-07-03T02:04:59.687Z,0
2017-07-03T02:05:59.036Z,0
2017-07-03T02:06:59.703Z,0
2017-07-03T02:07:59.714Z,0
2017-07-03T02:08:59.110Z,0
2017-07-03T02:09:59.091Z,0
2017-07-03T02:10:59.497Z,0
2017-07-03T02:11:59.810Z,0
2017-07-03T02:12:59.863Z,0
2017-07-03T02:13:59.871Z,0
2017-07-03T02:14:59.591Z,0
2017-07-03T02:15:59.924Z,0
2017-07-03T02:16:59.972Z,0
2017-07-03T02:17:59.381Z,0
2017-07-03T02:18:59.394Z,0
2017-07-03T02:20:00.308Z,0
2017-07-03T02:21:00.080Z,0
2017-07-03T02:22:00.106Z,0
2017-07-03T02:22:59.817Z,0
2017-07-03T02:23:59.525Z,0
2017-07-03T02:25:00.483Z,0
2017-07-03T02:25:59.281Z,0
2017-07-03T02:26:59.613Z,0
2017-07-03T02:27:59.961Z,0
2017-07-03T02:29:00.295Z,0
2017-07-03T02:30:00.323Z,0
2017-07-03T02:30:59.724Z,0
2017-07-03T02:32:00.397Z,0
2017-07-03T02:33:00.091Z,0
2017-07-03T02:34:00.439Z,0
2017-07-03T02:35:00.448Z,0
2017-07-03T02:36:00.492Z,0
2017-07-03T02:37:00.196Z,0
2017-07-03T02:37:59.922Z,0
2017-07-03T02:39:00.266Z,0
2017-07-03T02:40:00.895Z,0
2017-07-03T02:41:00.308Z,0
2017-07-03T02:42:00.345Z,0
2017-07-03T02:43:00.061Z,0
2017-07-03T02:44:00.435Z,0
2017-07-03T02:45:00.735Z,0
2017-07-03T02:46:00.756Z,0
2017-07-03T02:47:00.788Z,0
2017-07-03T02:48:00.808Z,0
2017-07-03T02:49:00.851Z,0
2017-07-03T02:50:00.866Z,0
2017-07-03T02:51:00.579Z,0
2017-07-03T02:52:00.613Z,0
2017-07-03T02:53:00.629Z,0
2017-07-03T02:54:00.654Z,0
2017-07-03T02:55:00.999Z,0
2017-07-03T02:56:01.030Z,0
2017-07-03T02:57:00.440Z,0
2017-07-03T02:58:00.777Z,0
2017-07-03T02:59:01.122Z,0
2017-07-03T03:00:01.459Z,0
2017-07-03T03:01:01.175Z,0
2017-07-03T03:02:01.203Z,0
2017-07-03T03:03:00.925Z,0
2017-07-03T03:04:01.001Z,0
2017-07-03T03:05:00.970Z,0
2017-07-03T03:06:01.268Z,0
2017-07-03T03:07:01.036Z,0
2017-07-03T03:08:01.110Z,0
2017-07-03T03:09:01.394Z,0
2017-07-03T03:10:01.439Z,0
2017-07-03T03:11:00.491Z,0
2017-07-03T03:12:01.496Z,0
2017-07-03T03:13:01.526Z,0
2017-07-03T03:14:01.202Z,0
2017-07-03T03:15:01.576Z,0
2017-07-03T03:16:01.884Z,0
2017-07-03T03:17:01.024Z,0
2017-07-03T03:18:01.654Z,0
2017-07-03T03:19:01.334Z,0
2017-07-03T03:20:01.384Z,0
2017-07-03T03:21:01.663Z,0
2017-07-03T03:22:01.448Z,0
2017-07-03T03:23:01.776Z,0
2017-07-03T03:24:01.815Z,0
2017-07-03T03:25:01.867Z,0
2017-07-03T03:26:02.115Z,0
2017-07-03T03:27:01.267Z,0
2017-07-03T03:28:01.925Z,0
2017-07-03T03:29:01.938Z,0
2017-07-03T03:30:01.661Z,0
2017-07-03T03:31:01.672Z,0
2017-07-03T03:32:02.028Z,0
2017-07-03T03:33:01.740Z,0
2017-07-03T03:34:01.130Z,0
2017-07-03T03:35:01.491Z,0
2017-07-03T03:36:02.119Z,0
2017-07-03T03:37:01.552Z,0
2017-07-03T03:38:01.885Z,0
2017-07-03T03:39:01.595Z,0
2017-07-03T03:40:01.627Z,0
2017-07-03T03:41:02.207Z,0
2017-07-03T03:42:02.308Z,0
2017-07-03T03:43:02.341Z,0
2017-07-03T03:44:01.741Z,0
2017-07-03T03:45:01.442Z,0
2017-07-03T03:46:02.655Z,0
2017-07-03T03:47:02.442Z,0
2017-07-03T03:48:01.854Z,0
2017-07-03T03:49:02.193Z,0
2017-07-03T03:50:02.205Z,0
2017-07-03T03:51:02.851Z,0
2017-07-03T03:52:01.952Z,0
2017-07-03T03:53:02.300Z,0
2017-07-03T03:54:01.998Z,0
2017-07-03T03:55:02.353Z,0
2017-07-03T03:56:02.938Z,0
2017-07-03T03:57:02.397Z,0
2017-07-03T03:58:02.444Z,0
2017-07-03T03:59:02.469Z,0
2017-07-03T04:00:02.799Z,0
2017-07-03T04:01:02.754Z,0
2017-07-03T04:02:02.856Z,0
2017-07-03T04:03:02.896Z,0
2017-07-03T04:04:02.909Z,0
2017-07-03T04:05:02.936Z,0
2017-07-03T04:06:02.646Z,0
2017-07-03T04:07:02.369Z,0
2017-07-03T04:08:03.012Z,0
2017-07-03T04:09:02.738Z,0
2017-07-03T04:10:02.771Z,0
2017-07-03T04:11:03.043Z,0
2017-07-03T04:12:03.136Z,0
2017-07-03T04:13:02.853Z,0
2017-07-03T04:14:02.876Z,0
2017-07-03T04:15:02.893Z,0
2017-07-03T04:16:03.186Z,0
2017-07-03T04:17:02.664Z,0
2017-07-03T04:18:03.296Z,0
2017-07-03T04:19:03.329Z,0
2017-07-03T04:20:03.361Z,0
2017-07-03T04:21:03.634Z,0
2017-07-03T04:22:03.395Z,0
2017-07-03T04:23:02.812Z,0
2017-07-03T04:24:03.152Z,0
2017-07-03T04:25:03.179Z,0
2017-07-03T04:26:03.510Z,0
2017-07-03T04:27:03.548Z,0
2017-07-03T04:28:03.577Z,0
2017-07-03T04:29:03.296Z,0
2017-07-03T04:30:03.624Z,0
2017-07-03T04:31:03.270Z,0
2017-07-03T04:32:03.054Z,0
2017-07-03T04:33:03.096Z,0
2017-07-03T04:34:03.440Z,0
2017-07-03T04:35:03.762Z,0
2017-07-03T04:36:03.738Z,0
2017-07-03T04:37:03.831Z,0
2017-07-03T04:38:03.535Z,0
2017-07-03T04:39:03.878Z,0
2017-07-03T04:40:03.572Z,0
2017-07-03T04:41:03.565Z,0
2017-07-03T04:42:03.975Z,0
2017-07-03T04:43:03.660Z,0
2017-07-03T04:44:04.009Z,0
2017-07-03T04:45:04.042Z,5
2017-07-03T04:46:04.366Z,5
2017-07-03T04:47:04.100Z,5
2017-07-03T04:48:03.513Z,0
2017-07-03T04:49:03.835Z,0
2017-07-03T04:50:03.862Z,0
2017-07-03T04:51:04.504Z,5
2017-07-03T04:52:03.606Z,5
2017-07-03T04:53:03.957Z,5
2017-07-03T04:54:03.973Z,5
2017-07-03T04:55:03.695Z,5
2017-07-03T04:56:03.403Z,5
2017-07-03T04:57:04.626Z,5
2017-07-03T04:58:03.757Z,5
2017-07-03T04:59:04.121Z,5
2017-07-03T05:00:03.518Z,5
2017-07-03T05:01:04.485Z,5
2017-07-03T05:02:04.447Z,10
2017-07-03T05:03:04.211Z,5
2017-07-03T05:04:04.577Z,5
2017-07-03T05:05:04.276Z,10
2017-07-03T05:06:04.002Z,10
2017-07-03T05:07:04.596Z,5
2017-07-03T05:08:04.676Z,5
2017-07-03T05:09:04.387Z,5
2017-07-03T05:10:04.101Z,5
2017-07-03T05:11:04.494Z,5
2017-07-03T05:12:05.027Z,5
2017-07-03T05:13:04.811Z,5
2017-07-03T05:14:04.213Z,5
2017-07-03T05:15:04.861Z,5
2017-07-03T05:16:04.886Z,5
2017-07-03T05:17:04.291Z,5
2017-07-03T05:18:04.963Z,10
2017-07-03T05:19:04.664Z,10
2017-07-03T05:20:05.005Z,5
2017-07-03T05:21:05.027Z,5
2017-07-03T05:22:04.371Z,10
2017-07-03T05:23:05.137Z,10
2017-07-03T05:24:04.801Z,10
2017-07-03T05:25:04.841Z,5
2017-07-03T05:26:05.181Z,10
2017-07-03T05:27:04.872Z,10
2017-07-03T05:28:04.915Z,10
2017-07-03T05:29:04.313Z,10
2017-07-03T05:30:05.290Z,10
2017-07-03T05:31:05.002Z,10
2017-07-03T05:32:05.599Z,5
2017-07-03T05:33:05.369Z,10
2017-07-03T05:34:05.400Z,10
2017-07-03T05:35:05.111Z,10
2017-07-03T05:36:05.433Z,10
2017-07-03T05:37:05.458Z,10
2017-07-03T05:38:04.887Z,5
2017-07-03T05:39:05.212Z,5
2017-07-03T05:40:04.944Z,5
2017-07-03T05:41:05.282Z,5
2017-07-03T05:42:05.911Z,5
2017-07-03T05:43:05.320Z,5
2017-07-03T05:44:05.158Z,5
2017-07-03T05:45:05.097Z,5
2017-07-03T05:46:05.730Z,10
2017-07-03T05:47:05.435Z,10
2017-07-03T05:48:05.156Z,10
2017-07-03T05:49:05.804Z,10
2017-07-03T05:50:05.837Z,10
2017-07-03T05:51:05.870Z,10
2017-07-03T05:52:05.859Z,10
2017-07-03T05:53:05.929Z,10
2017-07-03T05:54:05.629Z,10
2017-07-03T05:55:05.633Z,10
2017-07-03T05:56:05.688Z,10
2017-07-03T05:57:06.282Z,10
2017-07-03T05:58:05.759Z,10
2017-07-03T05:59:06.083Z,10
2017-07-03T06:00:05.804Z,10
2017-07-03T06:01:05.498Z,15
2017-07-03T06:02:06.456Z,15
2017-07-03T06:03:05.275Z,15
2017-07-03T06:04:06.233Z,20
2017-07-03T06:05:05.926Z,20
2017-07-03T06:06:06.285Z,25
2017-07-03T06:07:06.280Z,25
2017-07-03T06:08:06.324Z,20
2017-07-03T06:09:06.351Z,20
2017-07-03T06:10:06.089Z,20
2017-07-03T06:11:06.113Z,20
2017-07-03T06:12:06.395Z,15
2017-07-03T06:13:06.484Z,15
2017-07-03T06:14:06.511Z,15
2017-07-03T06:15:06.529Z,15
2017-07-03T06:16:06.246Z,15
2017-07-03T06:17:06.522Z,15
2017-07-03T06:18:06.312Z,15
2017-07-03T06:19:05.716Z,10
2017-07-03T06:20:06.041Z,10
2017-07-03T06:21:06.694Z,10
2017-07-03T06:22:06.038Z,10
2017-07-03T06:23:06.165Z,5
2017-07-03T06:24:06.473Z,10
2017-07-03T06:25:06.801Z,10
2017-07-03T06:26:06.230Z,15
2017-07-03T06:27:06.818Z,15
2017-07-03T06:28:06.579Z,15
2017-07-03T06:29:06.929Z,10
2017-07-03T06:30:05.994Z,5
2017-07-03T06:31:06.974Z,5
2017-07-03T06:32:07.298Z,10
2017-07-03T06:33:06.736Z,10
2017-07-03T06:34:06.744Z,10
2017-07-03T06:35:06.770Z,10
2017-07-03T06:36:06.482Z,10
2017-07-03T06:37:07.131Z,10
2017-07-03T06:38:06.560Z,10
2017-07-03T06:39:07.200Z,15
2017-07-03T06:40:06.904Z,15
2017-07-03T06:41:06.945Z,15
2017-07-03T06:42:06.922Z,15
2017-07-03T06:43:07.015Z,15
2017-07-03T06:44:07.032Z,15
2017-07-03T06:45:07.366Z,15
2017-07-03T06:46:07.398Z,15
2017-07-03T06:47:07.667Z,10
2017-07-03T06:48:07.151Z,10
2017-07-03T06:49:07.475Z,10
2017-07-03T06:50:07.175Z,10
2017-07-03T06:51:07.218Z,10
2017-07-03T06:52:07.806Z,10
2017-07-03T06:53:07.597Z,10
2017-07-03T06:54:07.003Z,10
2017-07-03T06:55:07.329Z,15
2017-07-03T06:56:07.350Z,15
2017-07-03T06:57:07.954Z,20
2017-07-03T06:58:07.424Z,15
2017-07-03T06:59:07.810Z,15
2017-07-03T07:00:07.465Z,10
2017-07-03T07:01:07.502Z,20
2017-07-03T07:02:08.150Z,20
2017-07-03T07:03:07.563Z,20
2017-07-03T07:04:07.588Z,20
2017-07-03T07:05:07.920Z,15
2017-07-03T07:06:07.945Z,15
2017-07-03T07:07:08.217Z,15
2017-07-03T07:08:08.011Z,20
2017-07-03T07:09:08.039Z,20
2017-07-03T07:10:07.750Z,20
2017-07-03T07:11:07.781Z,15
2017-07-03T07:12:07.810Z,15
2017-07-03T07:13:07.815Z,20
2017-07-03T07:14:08.168Z,20
2017-07-03T07:15:08.208Z,20
2017-07-03T07:16:08.228Z,20
2017-07-03T07:17:08.205Z,20
2017-07-03T07:18:07.668Z,20
2017-07-03T07:19:08.317Z,20
2017-07-03T07:20:08.345Z,30
2017-07-03T07:21:07.449Z,30
2017-07-03T07:22:08.331Z,30
2017-07-03T07:23:08.114Z,20
2017-07-03T07:24:08.143Z,15
2017-07-03T07:25:08.174Z,15
2017-07-03T07:26:08.197Z,15
2017-07-03T07:27:08.481Z,15
2017-07-03T07:28:07.943Z,15
2017-07-03T07:29:08.296Z,25
2017-07-03T07:30:08.623Z,15
2017-07-03T07:31:08.650Z,15
2017-07-03T07:32:08.926Z,15
2017-07-03T07:33:08.694Z,15
2017-07-03T07:34:08.728Z,15
2017-07-03T07:35:08.452Z,20
2017-07-03T07:36:08.468Z,20
2017-07-03T07:37:08.764Z,15
2017-07-03T07:38:08.856Z,15
2017-07-03T07:39:08.867Z,20
2017-07-03T07:40:09.065Z,20
2017-07-03T07:41:08.612Z,20
2017-07-03T07:42:08.885Z,20
2017-07-03T07:43:08.983Z,20
2017-07-03T07:44:09.024Z,20
2017-07-03T07:45:08.419Z,30
2017-07-03T07:46:08.748Z,30
2017-07-03T07:47:08.772Z,30
2017-07-03T07:48:08.812Z,30
2017-07-03T07:49:08.531Z,30
2017-07-03T07:50:08.869Z,30
2017-07-03T07:51:08.589Z,35
2017-07-03T07:52:09.515Z,25
2017-07-03T07:53:08.987Z,25
2017-07-03T07:54:08.352Z,25
2017-07-03T07:55:09.320Z,25
2017-07-03T07:56:09.061Z,20
2017-07-03T07:57:08.753Z,20
2017-07-03T07:58:09.349Z,20
2017-07-03T07:59:08.512Z,20
2017-07-03T08:00:09.179Z,20
2017-07-03T08:01:09.185Z,20
2017-07-03T08:02:09.530Z,15
2017-07-03T08:03:09.867Z,20
2017-07-03T08:04:08.951Z,25
2017-07-03T08:05:08.988Z,20
2017-07-03T08:06:09.000Z,20
2017-07-03T08:07:09.669Z,25
2017-07-03T08:08:09.626Z,25
2017-07-03T08:09:09.395Z,30
2017-07-03T08:10:09.455Z,35
2017-07-03T08:11:09.457Z,35
2017-07-03T08:12:09.513Z,35
2017-07-03T08:13:10.090Z,35
2017-07-03T08:14:09.563Z,40
2017-07-03T08:15:09.889Z,45
2017-07-03T08:16:09.918Z,50
2017-07-03T08:17:09.626Z,30
2017-07-03T08:18:09.613Z,25
2017-07-03T08:19:09.065Z,20
2017-07-03T08:20:10.020Z,20
2017-07-03T08:21:10.054Z,20
2017-07-03T08:22:10.078Z,20
2017-07-03T08:23:10.418Z,20
2017-07-03T08:24:10.135Z,20
2017-07-03T08:25:10.172Z,25
2017-07-03T08:26:09.888Z,25
2017-07-03T08:27:09.949Z,25
2017-07-03T08:28:10.230Z,25
2017-07-03T08:29:10.287Z,30
2017-07-03T08:30:09.988Z,30
2017-07-03T08:31:10.340Z,35
2017-07-03T08:32:10.048Z,50
2017-07-03T08:33:10.014Z,40
2017-07-03T08:34:10.111Z,35
2017-07-03T08:35:10.115Z,35
2017-07-03T08:36:10.480Z,45
2017-07-03T08:37:09.881Z,40
2017-07-03T08:38:10.510Z,30
2017-07-03T08:39:10.244Z,30
2017-07-03T08:40:10.592Z,30
2017-07-03T08:41:10.006Z,25
2017-07-03T08:42:10.341Z,25
2017-07-03T08:43:10.618Z,25
2017-07-03T08:44:10.704Z,35
2017-07-03T08:45:10.424Z,25
2017-07-03T08:46:10.753Z,20
2017-07-03T08:47:10.780Z,25
2017-07-03T08:48:10.737Z,25
2017-07-03T08:49:10.516Z,25
2017-07-03T08:50:10.239Z,30
2017-07-03T08:51:10.272Z,25
2017-07-03T08:52:10.926Z,25
2017-07-03T08:53:11.209Z,25
2017-07-03T08:54:10.975Z,25
2017-07-03T08:55:11.014Z,30
2017-07-03T08:56:11.044Z,25
2017-07-03T08:57:11.070Z,20
2017-07-03T08:58:11.387Z,20
2017-07-03T08:59:11.124Z,20
2017-07-03T09:00:10.543Z,20
2017-07-03T09:01:11.193Z,20
2017-07-03T09:02:10.585Z,20
2017-07-03T09:03:10.924Z,25
2017-07-03T09:04:10.968Z,25
2017-07-03T09:05:10.671Z,30
2017-07-03T09:06:11.324Z,35
2017-07-03T09:07:11.346Z,45
2017-07-03T09:08:11.629Z,50
2017-07-03T09:09:11.098Z,50
2017-07-03T09:10:10.811Z,45
2017-07-03T09:11:11.152Z,50
2017-07-03T09:12:11.192Z,60
2017-07-03T09:13:11.573Z,60
2017-07-03T09:14:11.254Z,50
2017-07-03T09:15:11.280Z,45
2017-07-03T09:16:11.299Z,60
2017-07-03T09:17:11.335Z,50
2017-07-03T09:18:11.649Z,35
2017-07-03T09:19:11.387Z,65
2017-07-03T09:20:11.095Z,40
2017-07-03T09:21:11.447Z,35
2017-07-03T09:22:11.165Z,40
2017-07-03T09:23:11.186Z,40
2017-07-03T09:24:11.855Z,40
2017-07-03T09:25:11.579Z,50
2017-07-03T09:26:11.592Z,55
2017-07-03T09:27:11.612Z,55
2017-07-03T09:28:11.897Z,45
2017-07-03T09:29:11.674Z,40
2017-07-03T09:30:11.703Z,40
2017-07-03T09:31:11.730Z,40
2017-07-03T09:32:12.048Z,45
2017-07-03T09:33:12.092Z,45
2017-07-03T09:34:11.803Z,45
2017-07-03T09:35:11.834Z,40
2017-07-03T09:36:11.855Z,45
2017-07-03T09:37:12.197Z,45
2017-07-03T09:38:12.480Z,40
2017-07-03T09:39:11.949Z,35
2017-07-03T09:40:11.984Z,30
2017-07-03T09:41:12.312Z,30
2017-07-03T09:42:12.343Z,35
2017-07-03T09:43:12.070Z,45
2017-07-03T09:44:12.706Z,35
2017-07-03T09:45:12.444Z,35
2017-07-03T09:46:12.460Z,40
2017-07-03T09:47:12.502Z,45
2017-07-03T09:48:12.213Z,55
2017-07-03T09:49:12.238Z,65
2017-07-03T09:50:12.579Z,60
2017-07-03T09:51:12.284Z,50
2017-07-03T09:52:12.640Z,60
2017-07-03T09:53:12.666Z,65
2017-07-03T09:54:12.006Z,55
2017-07-03T09:55:12.095Z,45
2017-07-03T09:56:12.436Z,45
2017-07-03T09:57:12.476Z,55
2017-07-03T09:58:12.797Z,35
2017-07-03T09:59:12.507Z,35
2017-07-03T10:00:12.249Z,35
2017-07-03T10:01:12.587Z,45
2017-07-03T10:02:12.309Z,55
2017-07-03T10:03:12.329Z,65
2017-07-03T10:04:13.281Z,50
2017-07-03T10:05:12.403Z,50
2017-07-03T10:06:13.032Z,55
2017-07-03T10:07:13.056Z,45
2017-07-03T10:08:13.149Z,40
2017-07-03T10:09:13.379Z,50
2017-07-03T10:10:12.828Z,50
2017-07-03T10:11:12.571Z,55
2017-07-03T10:12:12.909Z,55
2017-07-03T10:13:12.921Z,65
2017-07-03T10:14:13.505Z,60
2017-07-03T10:15:12.986Z,50
2017-07-03T10:16:13.319Z,55
2017-07-03T10:17:13.035Z,55
2017-07-03T10:18:13.383Z,55
2017-07-03T10:19:13.398Z,40
2017-07-03T10:20:13.440Z,45
2017-07-03T10:21:13.475Z,60
2017-07-03T10:22:13.200Z,70
2017-07-03T10:23:13.216Z,65
2017-07-03T10:24:13.546Z,50
2017-07-03T10:25:13.586Z,55
2017-07-03T10:26:13.619Z,55
2017-07-03T10:27:13.636Z,65
2017-07-03T10:28:13.349Z,65
2017-07-03T10:29:13.692Z,65
2017-07-03T10:30:13.428Z,65
2017-07-03T10:31:13.444Z,65
2017-07-03T10:32:13.471Z,65
2017-07-03T10:33:13.192Z,65
2017-07-03T10:34:14.090Z,70
2017-07-03T10:35:13.894Z,75
2017-07-03T10:36:13.579Z,85
2017-07-03T10:37:13.606Z,85
2017-07-03T10:38:13.641Z,90
2017-07-03T10:39:13.663Z,85
2017-07-03T10:40:13.707Z,85
2017-07-03T10:41:14.058Z,80
2017-07-03T10:42:13.448Z,80
2017-07-03T10:43:13.789Z,70
2017-07-03T10:44:14.065Z,80
2017-07-03T10:45:13.549Z,80
2017-07-03T10:46:13.866Z,80
2017-07-03T10:47:14.213Z,80
2017-07-03T10:48:13.925Z,80
2017-07-03T10:49:14.530Z,80
2017-07-03T10:50:14.317Z,75
2017-07-03T10:51:14.354Z,75
2017-07-03T10:52:14.056Z,75
2017-07-03T10:53:13.777Z,75
2017-07-03T10:54:14.689Z,80
2017-07-03T10:55:14.134Z,80
2017-07-03T10:56:14.171Z,80
2017-07-03T10:57:14.202Z,80
2017-07-03T10:58:13.913Z,80
2017-07-03T10:59:14.817Z,75
2017-07-03T11:00:14.278Z,75
2017-07-03T11:01:14.315Z,80
2017-07-03T11:02:14.660Z,80
2017-07-03T11:03:14.362Z,80
2017-07-03T11:04:14.961Z,75
2017-07-03T11:05:14.433Z,80
2017-07-03T11:06:14.768Z,85
2017-07-03T11:07:14.796Z,95
2017-07-03T11:08:14.832Z,95
2017-07-03T11:09:14.805Z,85
2017-07-03T11:10:14.890Z,90
2017-07-03T11:11:14.926Z,85
2017-07-03T11:12:14.632Z,80
2017-07-03T11:13:14.668Z,75
2017-07-03T11:14:15.297Z,65
2017-07-03T11:15:15.058Z,60
2017-07-03T11:16:14.748Z,55
2017-07-03T11:17:14.775Z,55
2017-07-03T11:18:15.121Z,55
2017-07-03T11:19:15.088Z,60
2017-07-03T11:20:14.866Z,60
2017-07-03T11:21:15.211Z,60
2017-07-03T11:22:14.936Z,60
2017-07-03T11:23:14.949Z,70
2017-07-03T11:24:15.299Z,65
2017-07-03T11:25:15.010Z,70
2017-07-03T11:26:15.023Z,75
2017-07-03T11:27:15.077Z,80
2017-07-03T11:28:15.406Z,80
2017-07-03T11:29:15.701Z,75
2017-07-03T11:30:15.486Z,100
2017-07-03T11:31:14.867Z,65
2017-07-03T11:32:15.219Z,45
2017-07-03T11:33:14.935Z,165
2017-07-03T11:34:15.895Z,245
2017-07-03T11:35:15.301Z,315
2017-07-03T11:36:15.656Z,310
2017-07-03T11:37:15.692Z,385
2017-07-03T11:38:15.708Z,425
2017-07-03T11:39:16.009Z,485
2017-07-03T11:40:15.474Z,40
2017-07-03T11:41:14.859Z,45
2017-07-03T11:42:15.514Z,65
2017-07-03T11:43:15.227Z,160
2017-07-03T11:44:16.148Z,640
2017-07-03T11:45:15.923Z,620
2017-07-03T11:46:15.935Z,715
2017-07-03T11:47:15.984Z,495
2017-07-03T11:48:16.009Z,655
2017-07-03T11:49:16.339Z,550
2017-07-03T11:50:16.062Z,555
2017-07-03T11:51:15.775Z,400
2017-07-03T11:52:16.132Z,90
2017-07-03T11:53:16.159Z,85
2017-07-03T11:54:16.121Z,365
2017-07-03T11:55:15.898Z,690
2017-07-03T11:56:16.246Z,650
2017-07-03T11:57:16.275Z,570
2017-07-03T11:58:16.324Z,555
2017-07-03T11:59:16.632Z,780
2017-07-03T12:00:16.061Z,875
2017-07-03T12:01:16.406Z,790
2017-07-03T12:02:16.448Z,650
2017-07-03T12:03:16.472Z,450
2017-07-03T12:04:16.847Z,555
2017-07-03T12:05:16.211Z,585
2017-07-03T12:06:16.575Z,555
2017-07-03T12:07:16.275Z,485
2017-07-03T12:08:16.312Z,395
2017-07-03T12:09:16.952Z,540
2017-07-03T12:10:16.361Z,285
2017-07-03T12:11:16.098Z,150
2017-07-03T12:12:16.454Z,630
2017-07-03T12:13:16.489Z,640
2017-07-03T12:14:16.800Z,735
2017-07-03T12:15:16.521Z,790
2017-07-03T12:16:16.258Z,610
2017-07-03T12:17:16.607Z,565
2017-07-03T12:18:16.652Z,565
2017-07-03T12:19:16.968Z,605
2017-07-03T12:20:16.382Z,660
2017-07-03T12:21:16.721Z,620
2017-07-03T12:22:16.435Z,475
2017-07-03T12:23:17.097Z,455
2017-07-03T12:24:17.451Z,415
2017-07-03T12:25:17.172Z,365
2017-07-03T12:26:17.215Z,330
2017-07-03T12:27:17.244Z,415
2017-07-03T12:28:16.972Z,495
2017-07-03T12:29:16.993Z,530
2017-07-03T12:30:16.969Z,580
2017-07-03T12:31:17.061Z,665
2017-07-03T12:32:17.402Z,855
2017-07-03T12:33:17.418Z,980
2017-07-03T12:34:16.849Z,835
2017-07-03T12:35:17.758Z,740
2017-07-03T12:36:17.525Z,755
2017-07-03T12:37:16.943Z,925
2017-07-03T12:38:17.309Z,990
2017-07-03T12:39:17.337Z,850
2017-07-03T12:40:17.614Z,770
2017-07-03T12:41:17.699Z,810
2017-07-03T12:42:17.427Z,925
2017-07-03T12:43:17.463Z,940
2017-07-03T12:44:17.492Z,930
2017-07-03T12:45:18.141Z,885
2017-07-03T12:46:17.562Z,825
2017-07-03T12:47:17.906Z,475
2017-07-03T12:48:17.632Z,660
2017-07-03T12:49:17.729Z,825
2017-07-03T12:50:17.946Z,1095
2017-07-03T12:51:18.052Z,810
2017-07-03T12:52:17.438Z,110
2017-07-03T12:53:18.096Z,1255
2017-07-03T12:54:17.212Z,100
2017-07-03T12:55:17.485Z,80
2017-07-03T12:56:17.894Z,120
2017-07-03T12:57:18.236Z,60
2017-07-03T12:58:18.268Z,60
2017-07-03T12:59:18.308Z,685
2017-07-03T13:00:17.957Z,510
2017-07-03T13:01:18.062Z,590
2017-07-03T13:02:18.087Z,890
2017-07-03T13:03:18.464Z,930
2017-07-03T13:04:18.164Z,80
2017-07-03T13:05:18.489Z,85
2017-07-03T13:06:17.910Z,590
2017-07-03T13:07:18.578Z,455
2017-07-03T13:08:18.598Z,345
2017-07-03T13:09:18.657Z,95
2017-07-03T13:10:18.595Z,285
2017-07-03T13:11:18.757Z,270
2017-07-03T13:12:18.727Z,195
2017-07-03T13:13:18.771Z,225
2017-07-03T13:14:18.498Z,250
2017-07-03T13:15:18.472Z,315
2017-07-03T13:16:18.867Z,270
2017-07-03T13:17:18.887Z,250
2017-07-03T13:18:18.917Z,235
2017-07-03T13:19:18.661Z,215
2017-07-03T13:20:18.366Z,230
2017-07-03T13:21:18.398Z,220
2017-07-03T13:22:18.443Z,215
2017-07-03T13:23:19.094Z,205
2017-07-03T13:24:19.132Z,210
2017-07-03T13:25:19.145Z,200
2017-07-03T13:26:18.574Z,200
2017-07-03T13:27:18.286Z,200
2017-07-03T13:28:18.955Z,200
2017-07-03T13:29:18.681Z,195
2017-07-03T13:30:18.997Z,195
2017-07-03T13:31:19.350Z,185
2017-07-03T13:32:18.512Z,95
2017-07-03T13:33:19.110Z,215
2017-07-03T13:34:19.154Z,60
2017-07-03T13:35:19.453Z,30
2017-07-03T13:36:19.214Z,30
2017-07-03T13:37:19.583Z,35
2017-07-03T13:38:18.351Z,40
2017-07-03T13:39:18.997Z,35
2017-07-03T13:40:18.965Z,30
2017-07-03T13:41:19.685Z,30
2017-07-03T13:42:19.415Z,35
2017-07-03T13:43:19.764Z,55
2017-07-03T13:44:19.172Z,160
2017-07-03T13:45:19.766Z,195
2017-07-03T13:46:19.846Z,65
2017-07-03T13:47:18.962Z,80
2017-07-03T13:48:19.604Z,115
2017-07-03T13:49:19.308Z,35
2017-07-03T13:50:19.974Z,25
2017-07-03T13:51:20.002Z,25
2017-07-03T13:52:19.730Z,20
2017-07-03T13:53:19.760Z,20
2017-07-03T13:54:20.120Z,20
2017-07-03T13:55:20.081Z,20
2017-07-03T13:56:20.170Z,20
2017-07-03T13:57:19.591Z,20
2017-07-03T13:58:19.603Z,20
2017-07-03T13:59:19.636Z,25
2017-07-03T14:00:20.241Z,30
2017-07-03T14:01:19.707Z,35
2017-07-03T14:02:20.344Z,55
2017-07-03T14:03:19.875Z,160
2017-07-03T14:04:19.804Z,170
2017-07-03T14:05:20.757Z,150
2017-07-03T14:06:20.180Z,130
2017-07-03T14:07:20.524Z,120
2017-07-03T14:08:20.271Z,30
2017-07-03T14:09:20.612Z,35
2017-07-03T14:10:20.592Z,45
2017-07-03T14:11:19.698Z,35
2017-07-03T14:12:20.366Z,25
2017-07-03T14:13:20.716Z,25
2017-07-03T14:14:20.737Z,30
2017-07-03T14:15:20.413Z,35
2017-07-03T14:16:20.556Z,30
2017-07-03T14:17:20.834Z,30
2017-07-03T14:18:20.565Z,90
2017-07-03T14:19:20.891Z,50
2017-07-03T14:20:20.870Z,55
2017-07-03T14:21:20.968Z,110
2017-07-03T14:22:20.991Z,130
2017-07-03T14:23:20.394Z,60